Aurelia, North Dakota
Current Conditions -  °F | °C
As of 3:55 AM on Monday 26 Jan 2015 (Local Time) from K08D Reporting Station
Overcast Overcast  
Wind Chill: 29°   Ceiling: 11000
Heat Index: 37°   Visibility: 10mi
Dew Point: 34°   Wind: 15mph
Humidity: 87%   Direction: 300°WNW
Pressure: 29.81"   Gusts: NA
Location:  48.4598°N, 101.907°W
Report Text: K08D 260955Z AUTO 30013KT 10SM FEW060 SCT070 OVC110 03/01 A2981 RMK AO2
Loading
Personal Weather Stations






























Interactive Weather Map New forecast layout! Learn more

10-Day Weather Forecast

Advertisements
Track Severe Weather on mobile